sensor_id;sensor_type;location;lat;lon;timestamp;P1;durP1;ratioP1;P2;durP2;ratioP2
63217;SDS011;49314;48.278;16.378;2023-05-28T00:02:17;10.63;;;9.93;;
63217;SDS011;49314;48.278;16.378;2023-05-28T00:04:42;9.95;;;8.82;;
63217;SDS011;49314;48.278;16.378;2023-05-28T00:07:07;10.90;;;9.93;;
63217;SDS011;49314;48.278;16.378;2023-05-28T00:09:35;9.77;;;9.10;;
63217;SDS011;49314;48.278;16.378;2023-05-28T00:12:00;10.05;;;9.45;;
63217;SDS011;49314;48.278;16.378;2023-05-28T00:14:26;8.73;;;7.63;;
63217;SDS011;49314;48.278;16.378;2023-05-28T00:16:51;10.37;;;9.67;;
63217;SDS011;49314;48.278;16.378;2023-05-28T00:19:17;12.20;;;11.40;;
63217;SDS011;49314;48.278;16.378;2023-05-28T00:21:42;7.85;;;7.15;;
63217;SDS011;49314;48.278;16.378;2023-05-28T00:24:07;10.98;;;9.90;;
63217;SDS011;49314;48.278;16.378;2023-05-28T00:26:32;10.75;;;10.15;;
63217;SDS011;49314;48.278;16.378;2023-05-28T00:28:58;12.57;;;11.50;;
63217;SDS011;49314;48.278;16.378;2023-05-28T00:31:23;10.23;;;9.60;;
63217;SDS011;49314;48.278;16.378;2023-05-28T00:33:48;10.52;;;9.73;;
63217;SDS011;49314;48.278;16.378;2023-05-28T00:36:13;10.07;;;9.20;;
63217;SDS011;49314;48.278;16.378;2023-05-28T00:38:39;13.38;;;12.60;;
63217;SDS011;49314;48.278;16.378;2023-05-28T00:41:04;12.95;;;11.98;;
63217;SDS011;49314;48.278;16.378;2023-05-28T00:43:29;9.13;;;8.48;;
63217;SDS011;49314;48.278;16.378;2023-05-28T00:45:56;10.70;;;9.90;;
63217;SDS011;49314;48.278;16.378;2023-05-28T00:48:22;11.57;;;10.70;;
63217;SDS011;49314;48.278;16.378;2023-05-28T00:50:47;15.10;;;14.20;;
63217;SDS011;49314;48.278;16.378;2023-05-28T00:53:12;17.63;;;16.50;;
63217;SDS011;49314;48.278;16.378;2023-05-28T00:55:38;12.35;;;11.43;;
63217;SDS011;49314;48.278;16.378;2023-05-28T00:58:03;14.10;;;13.40;;
63217;SDS011;49314;48.278;16.378;2023-05-28T01:00:31;15.48;;;14.48;;
63217;SDS011;49314;48.278;16.378;2023-05-28T01:02:57;11.82;;;11.02;;
63217;SDS011;49314;48.278;16.378;2023-05-28T01:05:22;14.00;;;13.07;;
63217;SDS011;49314;48.278;16.378;2023-05-28T01:07:48;13.25;;;12.45;;
63217;SDS011;49314;48.278;16.378;2023-05-28T01:10:13;12.85;;;11.85;;
63217;SDS011;49314;48.278;16.378;2023-05-28T01:12:38;13.70;;;12.57;;
63217;SDS011;49314;48.278;16.378;2023-05-28T01:15:05;11.98;;;10.98;;
63217;SDS011;49314;48.278;16.378;2023-05-28T01:17:30;12.95;;;12.15;;
63217;SDS011;49314;48.278;16.378;2023-05-28T01:19:55;12.13;;;11.38;;
63217;SDS011;49314;48.278;16.378;2023-05-28T01:22:21;12.05;;;11.38;;
63217;SDS011;49314;48.278;16.378;2023-05-28T01:24:49;12.90;;;12.23;;
63217;SDS011;49314;48.278;16.378;2023-05-28T01:27:16;16.52;;;15.57;;
63217;SDS011;49314;48.278;16.378;2023-05-28T01:29:41;13.38;;;12.35;;
63217;SDS011;49314;48.278;16.378;2023-05-28T01:32:07;14.52;;;13.80;;
63217;SDS011;49314;48.278;16.378;2023-05-28T01:34:32;10.93;;;10.10;;
63217;SDS011;49314;48.278;16.378;2023-05-28T01:36:58;17.10;;;16.15;;
63217;SDS011;49314;48.278;16.378;2023-05-28T01:39:29;12.40;;;11.57;;
63217;SDS011;49314;48.278;16.378;2023-05-28T01:41:55;10.43;;;9.57;;
63217;SDS011;49314;48.278;16.378;2023-05-28T01:44:21;12.05;;;11.18;;
63217;SDS011;49314;48.278;16.378;2023-05-28T01:46:48;13.48;;;12.55;;
63217;SDS011;49314;48.278;16.378;2023-05-28T01:49:14;20.17;;;19.15;;
63217;SDS011;49314;48.278;16.378;2023-05-28T01:51:39;13.10;;;12.30;;
63217;SDS011;49314;48.278;16.378;2023-05-28T01:54:05;15.02;;;14.00;;
63217;SDS011;49314;48.278;16.378;2023-05-28T01:56:30;15.23;;;14.32;;
63217;SDS011;49314;48.278;16.378;2023-05-28T01:58:55;14.83;;;13.87;;
63217;SDS011;49314;48.278;16.378;2023-05-28T02:01:24;12.13;;;11.50;;
63217;SDS011;49314;48.278;16.378;2023-05-28T02:03:52;13.50;;;12.70;;
63217;SDS011;49314;48.278;16.378;2023-05-28T02:06:17;17.15;;;16.00;;
63217;SDS011;49314;48.278;16.378;2023-05-28T02:08:43;12.13;;;11.30;;
63217;SDS011;49314;48.278;16.378;2023-05-28T02:11:08;15.18;;;14.27;;
63217;SDS011;49314;48.278;16.378;2023-05-28T02:13:33;12.23;;;11.45;;
63217;SDS011;49314;48.278;16.378;2023-05-28T02:15:58;14.13;;;13.18;;
63217;SDS011;49314;48.278;16.378;2023-05-28T02:18:24;11.77;;;11.07;;
63217;SDS011;49314;48.278;16.378;2023-05-28T02:20:49;10.38;;;9.43;;
63217;SDS011;49314;48.278;16.378;2023-05-28T02:23:14;9.65;;;8.80;;
63217;SDS011;49314;48.278;16.378;2023-05-28T02:25:40;17.05;;;15.98;;
63217;SDS011;49314;48.278;16.378;2023-05-28T02:28:05;13.73;;;12.50;;
63217;SDS011;49314;48.278;16.378;2023-05-28T02:30:30;15.10;;;13.75;;
63217;SDS011;49314;48.278;16.378;2023-05-28T02:32:56;14.40;;;13.40;;
63217;SDS011;49314;48.278;16.378;2023-05-28T02:35:21;19.90;;;18.77;;
63217;SDS011;49314;48.278;16.378;2023-05-28T02:37:48;17.55;;;16.00;;
63217;SDS011;49314;48.278;16.378;2023-05-28T02:40:13;17.02;;;16.23;;
63217;SDS011;49314;48.278;16.378;2023-05-28T02:42:38;18.25;;;17.02;;
63217;SDS011;49314;48.278;16.378;2023-05-28T02:45:04;18.40;;;17.17;;
63217;SDS011;49314;48.278;16.378;2023-05-28T02:47:30;13.07;;;12.02;;
63217;SDS011;49314;48.278;16.378;2023-05-28T02:49:55;16.83;;;15.93;;
63217;SDS011;49314;48.278;16.378;2023-05-28T02:52:20;14.93;;;13.88;;
63217;SDS011;49314;48.278;16.378;2023-05-28T02:54:45;15.63;;;14.68;;
63217;SDS011;49314;48.278;16.378;2023-05-28T02:57:11;13.75;;;12.73;;
63217;SDS011;49314;48.278;16.378;2023-05-28T02:59:37;18.90;;;17.70;;
63217;SDS011;49314;48.278;16.378;2023-05-28T03:02:02;14.38;;;13.23;;
63217;SDS011;49314;48.278;16.378;2023-05-28T03:04:28;12.32;;;11.43;;
63217;SDS011;49314;48.278;16.378;2023-05-28T03:06:53;16.73;;;15.77;;
63217;SDS011;49314;48.278;16.378;2023-05-28T03:09:18;13.07;;;12.18;;
63217;SDS011;49314;48.278;16.378;2023-05-28T03:11:43;14.77;;;13.77;;
63217;SDS011;49314;48.278;16.378;2023-05-28T03:14:09;14.65;;;13.57;;
63217;SDS011;49314;48.278;16.378;2023-05-28T03:16:34;14.52;;;13.57;;
63217;SDS011;49314;48.278;16.378;2023-05-28T03:19:01;17.02;;;16.05;;
63217;SDS011;49314;48.278;16.378;2023-05-28T03:21:26;21.25;;;20.02;;
63217;SDS011;49314;48.278;16.378;2023-05-28T03:23:52;13.77;;;13.00;;
63217;SDS011;49314;48.278;16.378;2023-05-28T03:26:17;10.68;;;9.88;;
63217;SDS011;49314;48.278;16.378;2023-05-28T03:28:43;16.65;;;15.48;;
63217;SDS011;49314;48.278;16.378;2023-05-28T03:31:08;14.85;;;13.63;;
63217;SDS011;49314;48.278;16.378;2023-05-28T03:33:33;15.20;;;14.20;;
63217;SDS011;49314;48.278;16.378;2023-05-28T03:35:59;11.27;;;10.38;;
63217;SDS011;49314;48.278;16.378;2023-05-28T03:38:24;13.32;;;12.52;;
63217;SDS011;49314;48.278;16.378;2023-05-28T03:40:49;17.95;;;16.88;;
63217;SDS011;49314;48.278;16.378;2023-05-28T03:43:14;13.68;;;12.55;;
63217;SDS011;49314;48.278;16.378;2023-05-28T03:45:40;14.45;;;13.50;;
63217;SDS011;49314;48.278;16.378;2023-05-28T03:48:05;13.95;;;12.93;;
63217;SDS011;49314;48.278;16.378;2023-05-28T03:50:32;13.80;;;12.85;;
63217;SDS011;49314;48.278;16.378;2023-05-28T03:52:57;13.70;;;12.65;;
63217;SDS011;49314;48.278;16.378;2023-05-28T03:55:22;15.82;;;14.85;;
63217;SDS011;49314;48.278;16.378;2023-05-28T03:57:47;10.93;;;10.18;;
63217;SDS011;49314;48.278;16.378;2023-05-28T04:00:13;12.32;;;11.38;;
63217;SDS011;49314;48.278;16.378;2023-05-28T04:02:38;11.90;;;10.98;;
63217;SDS011;49314;48.278;16.378;2023-05-28T04:05:04;13.82;;;12.68;;
63217;SDS011;49314;48.278;16.378;2023-05-28T04:07:29;10.02;;;9.00;;
63217;SDS011;49314;48.278;16.378;2023-05-28T04:09:54;10.75;;;9.85;;
63217;SDS011;49314;48.278;16.378;2023-05-28T04:12:20;11.43;;;10.68;;
63217;SDS011;49314;48.278;16.378;2023-05-28T04:14:45;14.20;;;13.25;;
63217;SDS011;49314;48.278;16.378;2023-05-28T04:17:11;9.07;;;8.35;;
63217;SDS011;49314;48.278;16.378;2023-05-28T04:19:38;10.85;;;10.02;;
63217;SDS011;49314;48.278;16.378;2023-05-28T04:22:03;11.82;;;11.02;;
63217;SDS011;49314;48.278;16.378;2023-05-28T04:24:29;13.65;;;12.57;;
63217;SDS011;49314;48.278;16.378;2023-05-28T04:26:54;12.23;;;11.50;;
63217;SDS011;49314;48.278;16.378;2023-05-28T04:29:21;11.43;;;10.45;;
63217;SDS011;49314;48.278;16.378;2023-05-28T04:31:48;12.43;;;11.43;;
63217;SDS011;49314;48.278;16.378;2023-05-28T04:34:14;14.23;;;13.07;;
63217;SDS011;49314;48.278;16.378;2023-05-28T04:36:42;13.75;;;12.52;;
63217;SDS011;49314;48.278;16.378;2023-05-28T04:39:08;11.45;;;10.60;;
63217;SDS011;49314;48.278;16.378;2023-05-28T04:41:33;12.50;;;11.55;;
63217;SDS011;49314;48.278;16.378;2023-05-28T04:43:59;11.85;;;10.93;;
63217;SDS011;49314;48.278;16.378;2023-05-28T04:46:24;16.17;;;13.40;;
63217;SDS011;49314;48.278;16.378;2023-05-28T04:48:50;12.27;;;11.35;;
63217;SDS011;49314;48.278;16.378;2023-05-28T04:51:16;11.02;;;10.00;;
63217;SDS011;49314;48.278;16.378;2023-05-28T04:53:43;11.60;;;10.63;;
63217;SDS011;49314;48.278;16.378;2023-05-28T04:56:08;8.43;;;7.68;;
63217;SDS011;49314;48.278;16.378;2023-05-28T04:58:34;12.13;;;11.20;;
63217;SDS011;49314;48.278;16.378;2023-05-28T05:01:00;9.15;;;8.30;;
63217;SDS011;49314;48.278;16.378;2023-05-28T05:03:25;9.55;;;8.68;;
63217;SDS011;49314;48.278;16.378;2023-05-28T05:05:50;9.10;;;8.30;;
63217;SDS011;49314;48.278;16.378;2023-05-28T05:08:16;8.65;;;7.38;;
63217;SDS011;49314;48.278;16.378;2023-05-28T05:10:41;8.18;;;7.53;;
63217;SDS011;49314;48.278;16.378;2023-05-28T05:13:07;8.82;;;8.07;;
63217;SDS011;49314;48.278;16.378;2023-05-28T05:15:32;7.97;;;7.15;;
63217;SDS011;49314;48.278;16.378;2023-05-28T05:17:58;7.80;;;6.80;;
63217;SDS011;49314;48.278;16.378;2023-05-28T05:20:23;9.15;;;7.55;;
63217;SDS011;49314;48.278;16.378;2023-05-28T05:22:48;9.13;;;8.23;;
63217;SDS011;49314;48.278;16.378;2023-05-28T05:25:14;8.70;;;7.80;;
63217;SDS011;49314;48.278;16.378;2023-05-28T05:27:39;7.05;;;6.45;;
63217;SDS011;49314;48.278;16.378;2023-05-28T05:30:05;7.90;;;7.20;;
63217;SDS011;49314;48.278;16.378;2023-05-28T05:32:30;7.57;;;5.60;;
63217;SDS011;49314;48.278;16.378;2023-05-28T05:34:55;5.95;;;5.43;;
63217;SDS011;49314;48.278;16.378;2023-05-28T05:37:21;5.78;;;5.30;;
63217;SDS011;49314;48.278;16.378;2023-05-28T05:39:48;10.88;;;6.57;;
63217;SDS011;49314;48.278;16.378;2023-05-28T05:42:13;6.88;;;6.20;;
63217;SDS011;49314;48.278;16.378;2023-05-28T05:44:39;6.95;;;5.43;;
63217;SDS011;49314;48.278;16.378;2023-05-28T05:47:04;5.50;;;5.00;;
63217;SDS011;49314;48.278;16.378;2023-05-28T05:49:30;9.00;;;6.22;;
63217;SDS011;49314;48.278;16.378;2023-05-28T05:51:55;7.82;;;6.05;;
63217;SDS011;49314;48.278;16.378;2023-05-28T05:54:20;5.95;;;5.35;;
63217;SDS011;49314;48.278;16.378;2023-05-28T05:56:46;8.48;;;5.68;;
63217;SDS011;49314;48.278;16.378;2023-05-28T05:59:11;5.65;;;4.88;;
63217;SDS011;49314;48.278;16.378;2023-05-28T06:01:36;6.22;;;5.63;;
63217;SDS011;49314;48.278;16.378;2023-05-28T06:04:02;8.00;;;5.75;;
63217;SDS011;49314;48.278;16.378;2023-05-28T06:06:27;6.47;;;5.53;;
63217;SDS011;49314;48.278;16.378;2023-05-28T06:08:53;6.40;;;5.65;;
63217;SDS011;49314;48.278;16.378;2023-05-28T06:11:19;6.50;;;4.85;;
63217;SDS011;49314;48.278;16.378;2023-05-28T06:13:47;6.80;;;4.68;;
63217;SDS011;49314;48.278;16.378;2023-05-28T06:16:12;6.55;;;4.25;;
63217;SDS011;49314;48.278;16.378;2023-05-28T06:18:39;5.57;;;4.22;;
63217;SDS011;49314;48.278;16.378;2023-05-28T06:21:05;6.57;;;5.22;;
63217;SDS011;49314;48.278;16.378;2023-05-28T06:23:32;5.45;;;4.78;;
63217;SDS011;49314;48.278;16.378;2023-05-28T06:25:58;6.00;;;4.90;;
63217;SDS011;49314;48.278;16.378;2023-05-28T06:28:23;9.30;;;4.53;;
63217;SDS011;49314;48.278;16.378;2023-05-28T06:30:48;5.53;;;3.53;;
63217;SDS011;49314;48.278;16.378;2023-05-28T06:33:14;5.13;;;3.83;;
63217;SDS011;49314;48.278;16.378;2023-05-28T06:35:39;5.85;;;3.60;;
63217;SDS011;49314;48.278;16.378;2023-05-28T06:38:04;7.53;;;4.15;;
63217;SDS011;49314;48.278;16.378;2023-05-28T06:40:30;7.15;;;3.88;;
63217;SDS011;49314;48.278;16.378;2023-05-28T06:42:55;5.68;;;3.67;;
63217;SDS011;49314;48.278;16.378;2023-05-28T06:45:21;7.80;;;4.05;;
63217;SDS011;49314;48.278;16.378;2023-05-28T06:47:46;7.40;;;4.05;;
63217;SDS011;49314;48.278;16.378;2023-05-28T06:50:12;7.28;;;4.30;;
63217;SDS011;49314;48.278;16.378;2023-05-28T06:52:37;6.43;;;4.57;;
63217;SDS011;49314;48.278;16.378;2023-05-28T06:55:03;4.00;;;3.55;;
63217;SDS011;49314;48.278;16.378;2023-05-28T06:57:30;5.85;;;3.83;;
63217;SDS011;49314;48.278;16.378;2023-05-28T06:59:55;6.43;;;3.70;;
63217;SDS011;49314;48.278;16.378;2023-05-28T07:02:20;5.57;;;4.10;;
63217;SDS011;49314;48.278;16.378;2023-05-28T07:04:46;5.18;;;3.97;;
63217;SDS011;49314;48.278;16.378;2023-05-28T07:07:12;6.50;;;4.00;;
63217;SDS011;49314;48.278;16.378;2023-05-28T07:09:41;5.75;;;4.22;;
63217;SDS011;49314;48.278;16.378;2023-05-28T07:12:06;8.85;;;4.30;;
63217;SDS011;49314;48.278;16.378;2023-05-28T07:14:32;6.05;;;3.97;;
63217;SDS011;49314;48.278;16.378;2023-05-28T07:17:04;5.75;;;3.70;;
63217;SDS011;49314;48.278;16.378;2023-05-28T07:19:30;5.78;;;4.18;;
63217;SDS011;49314;48.278;16.378;2023-05-28T07:21:56;6.18;;;4.28;;
63217;SDS011;49314;48.278;16.378;2023-05-28T07:24:21;4.38;;;3.95;;
63217;SDS011;49314;48.278;16.378;2023-05-28T07:26:46;11.70;;;4.40;;
63217;SDS011;49314;48.278;16.378;2023-05-28T07:29:12;6.68;;;4.22;;
63217;SDS011;49314;48.278;16.378;2023-05-28T07:31:43;8.05;;;4.55;;
63217;SDS011;49314;48.278;16.378;2023-05-28T07:34:08;4.07;;;3.65;;
63217;SDS011;49314;48.278;16.378;2023-05-28T07:36:34;4.38;;;3.97;;
63217;SDS011;49314;48.278;16.378;2023-05-28T07:38:59;5.45;;;4.28;;
63217;SDS011;49314;48.278;16.378;2023-05-28T07:41:26;6.65;;;4.55;;
63217;SDS011;49314;48.278;16.378;2023-05-28T07:43:51;5.90;;;4.57;;
63217;SDS011;49314;48.278;16.378;2023-05-28T07:46:17;5.47;;;4.22;;
63217;SDS011;49314;48.278;16.378;2023-05-28T07:48:42;7.60;;;5.03;;
63217;SDS011;49314;48.278;16.378;2023-05-28T07:51:08;9.10;;;4.68;;
63217;SDS011;49314;48.278;16.378;2023-05-28T07:53:36;7.78;;;4.30;;
63217;SDS011;49314;48.278;16.378;2023-05-28T07:56:01;8.25;;;5.05;;
63217;SDS011;49314;48.278;16.378;2023-05-28T07:58:30;6.38;;;3.95;;
63217;SDS011;49314;48.278;16.378;2023-05-28T08:00:55;6.83;;;4.80;;
63217;SDS011;49314;48.278;16.378;2023-05-28T08:03:20;8.73;;;4.70;;
63217;SDS011;49314;48.278;16.378;2023-05-28T08:05:47;6.97;;;4.13;;
63217;SDS011;49314;48.278;16.378;2023-05-28T08:08:12;7.20;;;3.53;;
63217;SDS011;49314;48.278;16.378;2023-05-28T08:10:37;7.90;;;5.43;;
63217;SDS011;49314;48.278;16.378;2023-05-28T08:13:05;10.48;;;5.28;;
63217;SDS011;49314;48.278;16.378;2023-05-28T08:15:30;7.50;;;4.40;;
63217;SDS011;49314;48.278;16.378;2023-05-28T08:17:58;6.30;;;4.93;;
63217;SDS011;49314;48.278;16.378;2023-05-28T08:20:25;6.30;;;4.90;;
63217;SDS011;49314;48.278;16.378;2023-05-28T08:22:51;4.57;;;3.75;;
63217;SDS011;49314;48.278;16.378;2023-05-28T08:25:20;6.28;;;4.57;;
63217;SDS011;49314;48.278;16.378;2023-05-28T08:33:36;4.68;;;4.22;;
63217;SDS011;49314;48.278;16.378;2023-05-28T08:39:18;7.40;;;5.00;;
63217;SDS011;49314;48.278;16.378;2023-05-28T08:41:45;7.63;;;4.53;;
63217;SDS011;49314;48.278;16.378;2023-05-28T08:44:12;6.35;;;5.55;;
63217;SDS011;49314;48.278;16.378;2023-05-28T08:46:38;5.90;;;5.18;;
63217;SDS011;49314;48.278;16.378;2023-05-28T08:49:03;5.85;;;5.00;;
63217;SDS011;49314;48.278;16.378;2023-05-28T08:51:32;7.00;;;5.55;;
63217;SDS011;49314;48.278;16.378;2023-05-28T08:53:58;5.88;;;4.80;;
63217;SDS011;49314;48.278;16.378;2023-05-28T08:56:39;8.10;;;5.55;;
63217;SDS011;49314;48.278;16.378;2023-05-28T08:59:08;7.63;;;5.93;;
63217;SDS011;49314;48.278;16.378;2023-05-28T09:01:42;8.45;;;7.65;;
63217;SDS011;49314;48.278;16.378;2023-05-28T09:04:08;8.20;;;7.32;;
63217;SDS011;49314;48.278;16.378;2023-05-28T09:06:37;12.43;;;11.23;;
63217;SDS011;49314;48.278;16.378;2023-05-28T09:09:04;11.05;;;10.07;;
63217;SDS011;49314;48.278;16.378;2023-05-28T09:11:30;5.47;;;4.80;;
63217;SDS011;49314;48.278;16.378;2023-05-28T09:13:55;10.00;;;6.70;;
63217;SDS011;49314;48.278;16.378;2023-05-28T09:16:21;17.23;;;15.73;;
63217;SDS011;49314;48.278;16.378;2023-05-28T09:18:50;9.10;;;8.30;;
63217;SDS011;49314;48.278;16.378;2023-05-28T09:21:16;7.18;;;5.38;;
63217;SDS011;49314;48.278;16.378;2023-05-28T09:23:42;5.75;;;4.25;;
63217;SDS011;49314;48.278;16.378;2023-05-28T09:26:09;10.80;;;9.77;;
63217;SDS011;49314;48.278;16.378;2023-05-28T09:28:35;9.02;;;5.32;;
63217;SDS011;49314;48.278;16.378;2023-05-28T09:31:03;7.80;;;6.95;;
63217;SDS011;49314;48.278;16.378;2023-05-28T09:33:29;37.47;;;33.72;;
63217;SDS011;49314;48.278;16.378;2023-05-28T09:35:57;6.47;;;5.10;;
63217;SDS011;49314;48.278;16.378;2023-05-28T09:38:24;4.88;;;4.38;;
63217;SDS011;49314;48.278;16.378;2023-05-28T09:40:51;6.88;;;6.18;;
63217;SDS011;49314;48.278;16.378;2023-05-28T09:43:18;6.13;;;4.43;;
63217;SDS011;49314;48.278;16.378;2023-05-28T09:45:51;8.45;;;5.85;;
63217;SDS011;49314;48.278;16.378;2023-05-28T09:48:16;7.30;;;4.90;;
63217;SDS011;49314;48.278;16.378;2023-05-28T09:50:42;6.63;;;5.33;;
63217;SDS011;49314;48.278;16.378;2023-05-28T09:53:07;7.47;;;5.38;;
63217;SDS011;49314;48.278;16.378;2023-05-28T09:55:33;7.82;;;5.22;;
63217;SDS011;49314;48.278;16.378;2023-05-28T09:58:04;7.20;;;4.82;;
63217;SDS011;49314;48.278;16.378;2023-05-28T10:00:31;6.45;;;4.90;;
63217;SDS011;49314;48.278;16.378;2023-05-28T10:03:09;6.35;;;5.38;;
63217;SDS011;49314;48.278;16.378;2023-05-28T10:05:38;8.18;;;5.50;;
63217;SDS011;49314;48.278;16.378;2023-05-28T10:08:05;6.13;;;5.55;;
63217;SDS011;49314;48.278;16.378;2023-05-28T10:10:30;11.00;;;5.05;;
63217;SDS011;49314;48.278;16.378;2023-05-28T10:12:56;7.70;;;4.47;;
63217;SDS011;49314;48.278;16.378;2023-05-28T10:15:22;5.75;;;5.18;;
63217;SDS011;49314;48.278;16.378;2023-05-28T10:17:50;6.38;;;5.25;;
63217;SDS011;49314;48.278;16.378;2023-05-28T10:20:16;7.10;;;5.07;;
63217;SDS011;49314;48.278;16.378;2023-05-28T10:22:42;7.22;;;4.60;;
63217;SDS011;49314;48.278;16.378;2023-05-28T10:25:07;6.28;;;4.40;;
63217;SDS011;49314;48.278;16.378;2023-05-28T10:27:34;7.20;;;4.90;;
63217;SDS011;49314;48.278;16.378;2023-05-28T10:30:02;6.82;;;4.53;;
63217;SDS011;49314;48.278;16.378;2023-05-28T10:32:28;5.22;;;4.72;;
63217;SDS011;49314;48.278;16.378;2023-05-28T10:35:00;5.38;;;4.30;;
63217;SDS011;49314;48.278;16.378;2023-05-28T10:37:27;8.07;;;7.32;;
63217;SDS011;49314;48.278;16.378;2023-05-28T10:39:52;8.53;;;5.67;;
63217;SDS011;49314;48.278;16.378;2023-05-28T10:42:18;6.93;;;4.70;;
63217;SDS011;49314;48.278;16.378;2023-05-28T10:45:04;7.47;;;6.07;;
63217;SDS011;49314;48.278;16.378;2023-05-28T10:47:34;7.85;;;5.32;;
63217;SDS011;49314;48.278;16.378;2023-05-28T10:52:26;6.88;;;4.72;;
63217;SDS011;49314;48.278;16.378;2023-05-28T10:54:52;5.20;;;4.47;;
63217;SDS011;49314;48.278;16.378;2023-05-28T10:57:18;7.72;;;4.80;;
63217;SDS011;49314;48.278;16.378;2023-05-28T10:59:45;7.28;;;5.32;;
63217;SDS011;49314;48.278;16.378;2023-05-28T11:02:11;8.23;;;4.88;;
63217;SDS011;49314;48.278;16.378;2023-05-28T11:04:36;6.00;;;4.55;;
63217;SDS011;49314;48.278;16.378;2023-05-28T11:07:02;6.90;;;5.03;;
63217;SDS011;49314;48.278;16.378;2023-05-28T11:09:28;8.68;;;4.50;;
63217;SDS011;49314;48.278;16.378;2023-05-28T11:11:57;9.95;;;5.30;;
63217;SDS011;49314;48.278;16.378;2023-05-28T11:14:22;13.40;;;5.75;;
63217;SDS011;49314;48.278;16.378;2023-05-28T11:16:48;8.50;;;5.33;;
63217;SDS011;49314;48.278;16.378;2023-05-28T11:19:13;6.40;;;5.13;;
63217;SDS011;49314;48.278;16.378;2023-05-28T11:21:51;8.10;;;4.67;;
63217;SDS011;49314;48.278;16.378;2023-05-28T11:24:16;6.47;;;5.43;;
63217;SDS011;49314;48.278;16.378;2023-05-28T11:26:41;5.97;;;4.77;;
63217;SDS011;49314;48.278;16.378;2023-05-28T11:29:07;5.50;;;4.90;;
63217;SDS011;49314;48.278;16.378;2023-05-28T11:31:37;6.28;;;5.32;;
63217;SDS011;49314;48.278;16.378;2023-05-28T11:34:02;9.27;;;5.45;;
63217;SDS011;49314;48.278;16.378;2023-05-28T11:36:28;5.18;;;4.30;;
63217;SDS011;49314;48.278;16.378;2023-05-28T11:39:00;8.52;;;5.22;;
63217;SDS011;49314;48.278;16.378;2023-05-28T11:41:27;6.32;;;5.53;;
63217;SDS011;49314;48.278;16.378;2023-05-28T11:43:52;8.33;;;4.80;;
63217;SDS011;49314;48.278;16.378;2023-05-28T11:46:21;8.02;;;5.50;;
63217;SDS011;49314;48.278;16.378;2023-05-28T11:48:46;9.00;;;5.30;;
63217;SDS011;49314;48.278;16.378;2023-05-28T11:51:12;7.38;;;5.20;;
63217;SDS011;49314;48.278;16.378;2023-05-28T11:53:38;6.30;;;5.20;;
63217;SDS011;49314;48.278;16.378;2023-05-28T11:56:04;5.65;;;5.10;;
63217;SDS011;49314;48.278;16.378;2023-05-28T11:58:30;8.25;;;6.20;;
63217;SDS011;49314;48.278;16.378;2023-05-28T12:00:56;7.25;;;4.93;;
63217;SDS011;49314;48.278;16.378;2023-05-28T12:03:21;6.40;;;5.20;;
63217;SDS011;49314;48.278;16.378;2023-05-28T12:05:50;6.57;;;5.95;;
63217;SDS011;49314;48.278;16.378;2023-05-28T12:08:17;6.95;;;4.63;;
63217;SDS011;49314;48.278;16.378;2023-05-28T12:10:42;6.85;;;5.22;;
63217;SDS011;49314;48.278;16.378;2023-05-28T12:13:08;5.57;;;4.40;;
63217;SDS011;49314;48.278;16.378;2023-05-28T12:15:34;6.32;;;4.82;;
63217;SDS011;49314;48.278;16.378;2023-05-28T12:18:00;5.82;;;5.10;;
63217;SDS011;49314;48.278;16.378;2023-05-28T12:20:29;6.47;;;4.82;;
63217;SDS011;49314;48.278;16.378;2023-05-28T12:23:05;8.90;;;5.68;;
63217;SDS011;49314;48.278;16.378;2023-05-28T12:25:50;7.55;;;5.30;;
63217;SDS011;49314;48.278;16.378;2023-05-28T12:28:16;7.75;;;5.57;;
63217;SDS011;49314;48.278;16.378;2023-05-28T12:30:42;5.93;;;4.70;;
63217;SDS011;49314;48.278;16.378;2023-05-28T12:33:11;10.32;;;4.90;;
63217;SDS011;49314;48.278;16.378;2023-05-28T12:35:37;8.73;;;5.03;;
63217;SDS011;49314;48.278;16.378;2023-05-28T12:38:02;6.72;;;4.97;;
63217;SDS011;49314;48.278;16.378;2023-05-28T12:40:28;5.90;;;4.95;;
63217;SDS011;49314;48.278;16.378;2023-05-28T12:42:54;5.40;;;4.88;;
63217;SDS011;49314;48.278;16.378;2023-05-28T12:45:19;12.10;;;5.53;;
63217;SDS011;49314;48.278;16.378;2023-05-28T12:47:44;5.90;;;4.78;;
63217;SDS011;49314;48.278;16.378;2023-05-28T12:50:10;9.60;;;5.10;;
63217;SDS011;49314;48.278;16.378;2023-05-28T12:52:35;10.38;;;5.65;;
63217;SDS011;49314;48.278;16.378;2023-05-28T12:55:01;6.37;;;5.17;;
63217;SDS011;49314;48.278;16.378;2023-05-28T12:57:27;5.25;;;4.75;;
63217;SDS011;49314;48.278;16.378;2023-05-28T12:59:52;9.52;;;5.68;;
63217;SDS011;49314;48.278;16.378;2023-05-28T13:02:17;7.35;;;4.88;;
63217;SDS011;49314;48.278;16.378;2023-05-28T13:04:44;8.05;;;4.95;;
63217;SDS011;49314;48.278;16.378;2023-05-28T13:07:09;5.87;;;4.47;;
63217;SDS011;49314;48.278;16.378;2023-05-28T13:09:35;6.57;;;5.25;;
63217;SDS011;49314;48.278;16.378;2023-05-28T13:12:00;6.10;;;4.80;;
63217;SDS011;49314;48.278;16.378;2023-05-28T13:14:28;11.07;;;5.57;;
63217;SDS011;49314;48.278;16.378;2023-05-28T13:16:56;7.10;;;5.18;;
63217;SDS011;49314;48.278;16.378;2023-05-28T13:19:21;5.07;;;4.57;;
63217;SDS011;49314;48.278;16.378;2023-05-28T13:21:46;7.38;;;5.05;;
63217;SDS011;49314;48.278;16.378;2023-05-28T13:24:12;6.05;;;5.28;;
63217;SDS011;49314;48.278;16.378;2023-05-28T13:26:37;8.90;;;5.68;;
63217;SDS011;49314;48.278;16.378;2023-05-28T13:29:03;5.43;;;4.90;;
63217;SDS011;49314;48.278;16.378;2023-05-28T13:31:29;7.70;;;4.82;;
63217;SDS011;49314;48.278;16.378;2023-05-28T13:33:55;5.68;;;4.35;;
63217;SDS011;49314;48.278;16.378;2023-05-28T13:36:20;6.47;;;4.95;;
63217;SDS011;49314;48.278;16.378;2023-05-28T13:38:45;6.73;;;4.93;;
63217;SDS011;49314;48.278;16.378;2023-05-28T13:41:14;9.60;;;5.13;;
63217;SDS011;49314;48.278;16.378;2023-05-28T13:43:40;6.18;;;4.70;;
63217;SDS011;49314;48.278;16.378;2023-05-28T13:46:06;10.57;;;6.38;;
63217;SDS011;49314;48.278;16.378;2023-05-28T13:48:31;7.07;;;4.80;;
63217;SDS011;49314;48.278;16.378;2023-05-28T13:50:57;6.15;;;5.03;;
63217;SDS011;49314;48.278;16.378;2023-05-28T13:53:22;6.38;;;4.82;;
63217;SDS011;49314;48.278;16.378;2023-05-28T13:55:48;6.80;;;5.47;;
63217;SDS011;49314;48.278;16.378;2023-05-28T13:58:13;5.25;;;4.70;;
63217;SDS011;49314;48.278;16.378;2023-05-28T14:00:38;5.57;;;4.97;;
63217;SDS011;49314;48.278;16.378;2023-05-28T14:03:04;6.47;;;5.07;;
63217;SDS011;49314;48.278;16.378;2023-05-28T14:05:29;10.23;;;5.53;;
63217;SDS011;49314;48.278;16.378;2023-05-28T14:07:55;7.53;;;4.70;;
63217;SDS011;49314;48.278;16.378;2023-05-28T14:10:20;6.17;;;4.83;;
63217;SDS011;49314;48.278;16.378;2023-05-28T14:12:49;8.00;;;4.95;;
63217;SDS011;49314;48.278;16.378;2023-05-28T14:15:15;7.90;;;5.07;;
63217;SDS011;49314;48.278;16.378;2023-05-28T14:17:40;8.23;;;4.80;;
63217;SDS011;49314;48.278;16.378;2023-05-28T14:20:05;6.40;;;5.20;;
63217;SDS011;49314;48.278;16.378;2023-05-28T14:22:31;7.93;;;5.30;;
63217;SDS011;49314;48.278;16.378;2023-05-28T14:24:56;8.87;;;5.33;;
63217;SDS011;49314;48.278;16.378;2023-05-28T14:27:22;6.60;;;5.00;;
63217;SDS011;49314;48.278;16.378;2023-05-28T14:29:47;6.60;;;5.05;;
63217;SDS011;49314;48.278;16.378;2023-05-28T14:32:15;6.07;;;4.28;;